Terminal Aerodrome Forecast
Issued by NWS Columbia, SC

Home | Current Version | Previous Version | Text Only | Print | Product List | Glossary On
Versions: 1 2 3 4 5 6 7 8 9 10 11 12 13 14 15 16 17 18 19 20 21 22 23
000
FTUS42 KCAE 281700
TAFCAE
TAF
KCAE 281720Z 2818/2918 22007KT P6SM SCT025 OVC050
     FM290100 VRB03KT 5SM BR BKN007 OVC015
     FM290600 VRB03KT 3SM BR VCSH OVC007
     FM290900 VRB03KT 3SM -RA BR OVC004=

USA.gov is the U.S. government's official web portal to all federal, state and local government web resources and services.